createdAt,value
2022-09-09T00:02:11.422Z,99800.03
2022-09-09T00:07:38.867Z,99794.25
2022-09-09T00:12:56.807Z,99796.97
2022-09-09T00:18:33.261Z,99796.78
2022-09-09T00:23:50.347Z,99796.19
2022-09-09T00:28:57.969Z,99787.31
2022-09-09T00:34:25.594Z,99789.19
2022-09-09T00:39:42.945Z,99792.25
2022-09-09T00:45:25.069Z,99793.28
2022-09-09T00:50:36.757Z,99810.81
2022-09-09T00:55:54.870Z,99814.50
2022-09-09T01:01:14.280Z,99803.41
2022-09-09T01:06:40.317Z,99810.84
2022-09-09T01:12:18.338Z,99814.94
2022-09-09T01:17:54.560Z,99817.84
2022-09-09T01:23:22.131Z,99822.56
2022-09-09T01:28:29.500Z,99809.38
2022-09-09T01:33:32.839Z,99814.53
2022-09-09T01:38:36.861Z,99809.81
2022-09-09T01:43:39.861Z,99814.50
2022-09-09T01:48:44.176Z,99810.81
2022-09-09T01:53:47.941Z,99810.59
2022-09-09T01:58:53.388Z,99809.34
2022-09-09T02:04:00.319Z,99811.66
2022-09-09T02:09:08.184Z,99812.88
2022-09-09T02:14:23.231Z,99821.56
2022-09-09T02:19:33.615Z,99834.34
2022-09-09T02:24:39.973Z,99842.19
2022-09-09T02:29:45.533Z,99825.50
2022-09-09T02:35:03.379Z,99826.53
2022-09-09T02:40:13.188Z,99833.75
2022-09-09T02:45:23.038Z,99840.16
2022-09-09T02:50:39.059Z,99833.56
2022-09-09T02:55:51.174Z,99830.28
2022-09-09T03:00:54.183Z,99830.91
2022-09-09T03:05:57.943Z,99836.03
2022-09-09T03:11:04.882Z,99821.59
2022-09-09T03:16:07.738Z,99820.78
2022-09-09T03:21:10.658Z,99825.94
2022-09-09T03:26:15.752Z,99827.38
2022-09-09T03:31:20.789Z,99831.06
2022-09-09T03:36:23.734Z,99821.97
2022-09-09T03:41:27.370Z,99834.13
2022-09-09T03:46:30.140Z,99837.16
2022-09-09T03:51:33.031Z,99830.59
2022-09-09T03:56:36.539Z,99843.53
2022-09-09T04:01:39.315Z,99846.44
2022-09-09T04:06:42.074Z,99837.16
2022-09-09T04:11:44.958Z,99837.63
2022-09-09T04:16:47.730Z,99840.91
2022-09-09T04:21:52.217Z,99851.03
2022-09-09T04:26:54.999Z,99854.94
2022-09-09T04:31:57.924Z,99856.00
2022-09-09T04:37:02.353Z,99850.63
2022-09-09T04:42:05.300Z,99850.41
2022-09-09T04:47:08.122Z,99854.09
2022-09-09T04:52:10.961Z,99853.69
2022-09-09T04:57:18.441Z,99849.75
2022-09-09T05:02:21.805Z,99861.91
2022-09-09T05:07:24.736Z,99861.72
2022-09-09T05:12:27.810Z,99871.16
2022-09-09T05:17:30.489Z,99882.09
2022-09-09T05:22:33.198Z,99869.69
2022-09-09T05:27:36.538Z,99878.97
2022-09-09T05:32:39.332Z,99883.25
2022-09-09T05:37:42.113Z,99872.50
2022-09-09T05:42:44.807Z,99856.13
2022-09-09T05:47:56.309Z,99874.47
2022-09-09T05:52:59.002Z,99858.75
2022-09-09T05:58:02.298Z,99867.75
2022-09-09T06:03:05.356Z,99862.06
2022-09-09T06:08:08.432Z,99869.19
2022-09-09T06:13:11.147Z,99871.34
2022-09-09T06:18:14.005Z,99865.63
2022-09-09T06:23:17.229Z,99864.91
2022-09-09T06:28:20.315Z,99880.50
2022-09-09T06:33:23.054Z,99880.47
2022-09-09T06:38:26.248Z,99881.84
2022-09-09T06:43:31.809Z,99886.09
2022-09-09T06:48:35.283Z,99885.13
2022-09-09T06:53:40.366Z,99891.88
2022-09-09T06:58:45.046Z,99889.22
2022-09-09T07:03:51.847Z,99890.81
2022-09-09T07:08:57.588Z,99891.38
2022-09-09T07:14:01.676Z,99900.50
2022-09-09T07:19:05.343Z,99900.28
2022-09-09T07:24:11.216Z,99894.72
2022-09-09T07:29:20.786Z,99887.66
2022-09-09T07:34:23.960Z,99903.53
2022-09-09T07:39:26.692Z,99899.75
2022-09-09T07:44:29.563Z,99896.88
2022-09-09T07:49:33.379Z,99892.34
2022-09-09T07:54:36.505Z,99893.56
2022-09-09T07:59:39.221Z,99891.88
2022-09-09T08:04:41.977Z,99897.50
2022-09-09T08:09:44.914Z,99887.75
2022-09-09T08:14:47.866Z,99896.03
2022-09-09T08:19:50.625Z,99894.59
2022-09-09T08:24:54.348Z,99891.31
2022-09-09T08:29:57.622Z,99888.59
2022-09-09T08:35:01.600Z,99880.66
2022-09-09T08:40:05.200Z,99874.13
2022-09-09T08:45:50.387Z,99865.31
2022-09-09T08:50:53.898Z,99879.88
2022-09-09T08:56:00.507Z,99883.13
2022-09-09T09:01:27.938Z,99886.38
2022-09-09T09:06:39.644Z,99883.31
2022-09-09T09:11:55.826Z,99872.75
2022-09-09T09:17:07.991Z,99877.56
2022-09-09T09:22:21.116Z,99882.19
2022-09-09T09:27:43.388Z,99873.03
2022-09-09T09:33:12.318Z,99875.09
2022-09-09T09:43:55.586Z,99853.50
2022-09-09T09:49:06.509Z,99854.16
2022-09-09T09:54:18.021Z,99857.09
2022-09-09T09:59:38.646Z,99854.53
2022-09-09T10:04:42.743Z,99861.69
2022-09-09T10:09:46.095Z,99859.19
2022-09-09T10:15:40.038Z,99854.56
2022-09-09T10:21:01.446Z,99838.94
2022-09-09T10:26:24.156Z,99843.56
2022-09-09T10:31:58.166Z,99845.56
2022-09-09T10:37:01.706Z,99845.19
2022-09-09T10:42:15.283Z,99839.25
2022-09-09T10:47:39.875Z,99847.41
2022-09-09T10:53:09.369Z,99847.16
2022-09-09T10:58:28.673Z,99839.78
2022-09-09T11:03:34.739Z,99832.53
2022-09-09T11:08:40.391Z,99835.25
2022-09-09T11:14:19.166Z,99837.25
2022-09-09T11:19:37.091Z,99823.50
2022-09-09T11:24:46.735Z,99822.41
2022-09-09T11:30:53.858Z,99819.53
2022-09-09T11:36:11.326Z,99826.03
2022-09-09T11:41:21.096Z,99816.34
2022-09-09T11:46:37.537Z,99821.91
2022-09-09T11:51:41.087Z,99814.13
2022-09-09T11:56:46.166Z,99805.31
2022-09-09T12:02:13.154Z,99802.44
2022-09-09T12:07:34.895Z,99805.84
2022-09-09T12:12:43.180Z,99814.72
2022-09-09T12:17:54.254Z,99807.44
2022-09-09T12:23:18.429Z,99809.88
2022-09-09T12:28:51.920Z,99820.16
2022-09-09T12:33:54.684Z,99799.78
2022-09-09T12:39:11.566Z,99797.28
2022-09-09T12:44:14.332Z,99796.22
2022-09-09T12:49:39.654Z,99809.28
2022-09-09T12:54:54.829Z,99786.47
2022-09-09T13:00:10.039Z,99785.59
2022-09-09T13:05:40.052Z,99772.78
2022-09-09T13:10:58.745Z,99757.28
2022-09-09T13:16:09.456Z,99749.69
2022-09-09T13:21:12.358Z,99747.00
2022-09-09T13:26:28.338Z,99742.97
2022-09-09T13:31:35.094Z,99730.78
2022-09-09T13:36:38.016Z,99730.50
2022-09-09T13:41:46.480Z,99749.28
2022-09-09T13:46:49.285Z,99744.13
2022-09-09T13:51:54.970Z,99734.88
2022-09-09T13:56:58.860Z,99729.44
2022-09-09T14:02:02.874Z,99730.53
2022-09-09T14:07:05.656Z,99719.09
2022-09-09T14:12:13.457Z,99713.94
2022-09-09T14:17:16.156Z,99710.34
2022-09-09T14:22:18.830Z,99702.44
2022-09-09T14:27:21.691Z,99703.25
2022-09-09T14:32:25.150Z,99690.78
2022-09-09T14:37:28.974Z,99689.44
2022-09-09T14:42:32.466Z,99693.25
2022-09-09T14:47:35.573Z,99688.38
2022-09-09T14:52:38.245Z,99685.44
2022-09-09T14:57:41.362Z,99686.78
2022-09-09T15:02:44.173Z,99691.69
2022-09-09T15:07:47.051Z,99700.13
2022-09-09T15:12:49.805Z,99708.81
2022-09-09T15:17:52.456Z,99709.06
2022-09-09T15:22:55.162Z,99712.06
2022-09-09T15:27:58.121Z,99698.50
2022-09-09T15:33:00.892Z,99707.72
2022-09-09T15:38:06.027Z,99705.28
2022-09-09T15:43:10.589Z,99693.34
2022-09-09T15:48:13.829Z,99694.16
2022-09-09T15:53:16.524Z,99704.16
2022-09-09T15:58:20.385Z,99700.63
2022-09-09T16:03:23.172Z,99696.03
2022-09-09T16:08:26.036Z,99702.88
2022-09-09T16:13:29.000Z,99712.63
2022-09-09T16:18:52.806Z,99720.72
2022-09-09T16:23:56.065Z,99721.78
2022-09-09T16:29:02.263Z,99718.44
2022-09-09T16:34:06.426Z,99719.41
2022-09-09T16:39:17.189Z,99725.28
2022-09-09T16:44:20.519Z,99723.84
2022-09-09T16:49:23.359Z,99716.41
2022-09-09T16:54:28.071Z,99725.22
2022-09-09T16:59:32.625Z,99728.31
2022-09-09T17:04:35.740Z,99728.41
2022-09-09T17:09:38.442Z,99727.72
2022-09-09T17:14:41.262Z,99738.03
2022-09-09T17:19:44.125Z,99744.59
2022-09-09T17:24:47.934Z,99738.78
2022-09-09T17:29:50.749Z,99749.41
2022-09-09T17:34:54.031Z,99746.47
2022-09-09T17:39:56.842Z,99749.28
2022-09-09T17:45:00.148Z,99751.44
2022-09-09T17:50:03.138Z,99754.19
2022-09-09T17:55:07.323Z,99757.78
2022-09-09T18:00:11.456Z,99761.69
2022-09-09T18:05:14.858Z,99772.56
2022-09-09T18:10:17.757Z,99774.03
2022-09-09T18:15:33.511Z,99783.44
2022-09-09T18:20:44.680Z,99760.97
2022-09-09T18:25:47.385Z,99760.88
2022-09-09T18:30:50.203Z,99768.84
2022-09-09T18:35:53.578Z,99765.56
2022-09-09T18:40:56.377Z,99765.22
2022-09-09T18:46:05.011Z,99766.44
2022-09-09T18:51:10.605Z,99775.00
2022-09-09T18:56:13.903Z,99780.28
2022-09-09T19:01:16.805Z,99775.28
2022-09-09T19:06:23.917Z,99768.06
2022-09-09T19:11:28.887Z,99778.75
2022-09-09T19:16:34.944Z,99778.31
2022-09-09T19:21:41.005Z,99779.97
2022-09-09T19:26:49.495Z,99781.88
2022-09-09T19:32:36.402Z,99788.88
2022-09-09T19:37:18.850Z,99794.03
2022-09-09T19:42:21.948Z,99791.13
2022-09-09T19:47:24.769Z,99802.50
2022-09-09T19:52:27.540Z,99793.72
2022-09-09T19:57:30.821Z,99789.84
2022-09-09T20:02:33.824Z,99789.00
2022-09-09T20:07:36.674Z,99795.59
2022-09-09T20:12:39.394Z,99800.84
2022-09-09T20:17:42.731Z,99804.13
2022-09-09T20:22:45.447Z,99808.56
2022-09-09T20:27:48.832Z,99807.06
2022-09-09T20:32:51.559Z,99811.16
2022-09-09T20:37:55.138Z,99809.31
2022-09-09T20:42:58.233Z,99809.63
2022-09-09T20:48:00.860Z,99811.50
2022-09-09T20:53:04.333Z,99804.59
2022-09-09T20:58:07.298Z,99791.72
2022-09-09T21:03:10.071Z,99797.09
2022-09-09T21:08:13.038Z,99778.94
2022-09-09T21:13:16.347Z,99778.59
2022-09-09T21:18:19.707Z,99779.06
2022-09-09T21:23:23.114Z,99774.16
2022-09-09T21:28:25.860Z,99771.47
2022-09-09T21:33:29.248Z,99786.56
2022-09-09T21:38:33.019Z,99783.63
2022-09-09T21:43:35.926Z,99780.69
2022-09-09T21:48:38.765Z,99782.81
2022-09-09T21:53:43.438Z,99779.53
2022-09-09T21:58:47.361Z,99763.97
2022-09-09T22:03:50.471Z,99769.09
2022-09-09T22:08:58.994Z,99762.91
2022-09-09T22:14:02.388Z,99765.25
2022-09-09T22:19:05.126Z,99769.72
2022-09-09T22:24:07.876Z,99771.59
2022-09-09T22:29:11.254Z,99768.28
2022-09-09T22:34:14.078Z,99766.91
2022-09-09T22:39:17.586Z,99753.31
2022-09-09T22:44:20.821Z,99756.94
2022-09-09T22:49:24.293Z,99751.44
2022-09-09T22:54:27.123Z,99746.53
2022-09-09T22:59:30.034Z,99759.06
2022-09-09T23:04:33.029Z,99750.25
2022-09-09T23:09:35.852Z,99748.47
2022-09-09T23:14:38.669Z,99741.25
2022-09-09T23:19:41.571Z,99737.50
2022-09-09T23:24:44.272Z,99742.88
2022-09-09T23:29:48.717Z,99743.47
2022-09-09T23:34:51.773Z,99748.84
2022-09-09T23:39:54.600Z,99738.09
2022-09-09T23:44:57.464Z,99749.91
2022-09-09T23:50:00.328Z,99752.84
2022-09-09T23:55:04.204Z,99755.16
